createdAt,value
2022-11-29T00:01:42.332Z,19.79
2022-11-29T00:04:45.442Z,19.85
2022-11-29T00:07:48.188Z,19.82
2022-11-29T00:10:51.158Z,19.90
2022-11-29T00:13:54.433Z,19.89
2022-11-29T00:17:02.774Z,19.96
2022-11-29T00:20:06.110Z,19.95
2022-11-29T00:23:08.740Z,19.93
2022-11-29T00:26:11.207Z,19.90
2022-11-29T00:29:14.838Z,19.93
2022-11-29T00:32:16.843Z,19.97
2022-11-29T00:35:19.983Z,19.86
2022-11-29T00:38:22.466Z,19.76
2022-11-29T00:41:25.403Z,19.66
2022-11-29T00:44:27.533Z,19.58
2022-11-29T00:47:30.950Z,19.55
2022-11-29T00:50:33.046Z,19.52
2022-11-29T00:53:37.001Z,19.47
2022-11-29T00:56:39.448Z,19.45
2022-11-29T00:59:41.862Z,19.39
2022-11-29T01:02:44.583Z,19.36
2022-11-29T01:05:48.476Z,19.34
2022-11-29T01:08:50.888Z,19.30
2022-11-29T01:11:53.211Z,19.25
2022-11-29T01:14:55.614Z,19.22
2022-11-29T01:17:58.717Z,19.22
2022-11-29T01:21:07.334Z,19.21
2022-11-29T01:24:10.261Z,19.17
2022-11-29T01:27:12.722Z,19.17
2022-11-29T01:30:15.562Z,19.10
2022-11-29T01:33:18.134Z,19.12
2022-11-29T01:36:22.020Z,19.11
2022-11-29T01:39:24.159Z,19.10
2022-11-29T01:42:26.995Z,19.10
2022-11-29T01:45:29.136Z,19.12
2022-11-29T01:48:33.844Z,19.11
2022-11-29T01:51:37.857Z,19.07
2022-11-29T01:54:52.783Z,19.06
2022-11-29T01:57:54.855Z,19.03
2022-11-29T02:00:58.405Z,19.01
2022-11-29T02:04:01.214Z,18.97
2022-11-29T02:07:04.864Z,19.00
2022-11-29T02:10:08.921Z,18.97
2022-11-29T02:13:25.967Z,18.97
2022-11-29T02:16:46.664Z,18.94
2022-11-29T02:20:14.271Z,18.97
2022-11-29T02:23:29.709Z,18.96
2022-11-29T02:27:03.029Z,18.96
2022-11-29T02:30:21.127Z,18.90
2022-11-29T02:33:38.999Z,18.89
2022-11-29T02:36:41.207Z,18.89
2022-11-29T02:40:17.894Z,18.86
2022-11-29T02:43:37.088Z,18.84
2022-11-29T02:46:58.961Z,18.80
2022-11-29T02:50:29.555Z,18.79
2022-11-29T02:53:47.484Z,18.79
2022-11-29T02:57:14.620Z,18.76
2022-11-29T03:00:20.827Z,18.71
2022-11-29T03:03:54.141Z,18.74
2022-11-29T03:07:12.058Z,18.71
2022-11-29T03:10:40.188Z,18.71
2022-11-29T03:14:02.482Z,18.70
2022-11-29T03:17:27.067Z,18.67
2022-11-29T03:20:46.129Z,18.66
2022-11-29T03:23:49.240Z,18.66
2022-11-29T03:27:01.858Z,18.66
2022-11-29T03:30:09.104Z,18.64
2022-11-29T03:33:35.380Z,18.64
2022-11-29T03:36:51.823Z,18.61
2022-11-29T03:40:03.882Z,18.60
2022-11-29T03:43:20.233Z,18.56
2022-11-29T03:46:29.747Z,18.59
2022-11-29T03:50:05.042Z,18.56
2022-11-29T03:53:37.629Z,18.57
2022-11-29T03:56:40.705Z,18.56
2022-11-29T03:59:58.867Z,18.56
2022-11-29T04:03:38.838Z,18.37
2022-11-29T04:06:44.952Z,17.48
2022-11-29T04:10:14.366Z,16.38
2022-11-29T04:13:35.861Z,16.72
2022-11-29T04:16:44.597Z,17.23
2022-11-29T04:20:11.756Z,16.69
2022-11-29T04:23:44.254Z,16.60
2022-11-29T04:27:12.964Z,17.00
2022-11-29T04:30:22.651Z,17.47
2022-11-29T04:34:01.608Z,17.43
2022-11-29T04:37:18.989Z,16.35
2022-11-29T04:40:36.694Z,14.67
2022-11-29T04:44:09.895Z,14.24
2022-11-29T04:47:52.207Z,16.32
2022-11-29T04:51:16.726Z,16.79
2022-11-29T04:54:50.384Z,16.59
2022-11-29T04:58:03.823Z,17.23
2022-11-29T05:01:32.034Z,17.50
2022-11-29T05:04:53.331Z,17.73
2022-11-29T05:08:20.501Z,17.84
2022-11-29T05:11:35.028Z,17.94
2022-11-29T05:15:09.842Z,17.99
2022-11-29T05:18:47.715Z,18.01
2022-11-29T05:22:04.943Z,18.06
2022-11-29T05:25:22.896Z,18.04
2022-11-29T05:28:36.185Z,18.02
2022-11-29T05:31:47.315Z,17.96
2022-11-29T05:35:44.960Z,18.05
2022-11-29T05:39:08.956Z,17.61
2022-11-29T05:42:33.542Z,17.84
2022-11-29T05:45:45.241Z,17.94
2022-11-29T05:49:05.193Z,18.01
2022-11-29T05:52:21.912Z,18.05
2022-11-29T05:55:55.528Z,18.09
2022-11-29T05:59:07.579Z,18.09
2022-11-29T06:02:26.868Z,18.10
2022-11-29T06:05:29.866Z,18.09
2022-11-29T06:08:56.683Z,18.12
2022-11-29T06:12:16.931Z,18.10
2022-11-29T06:15:56.849Z,18.05
2022-11-29T06:19:24.147Z,18.06
2022-11-29T06:22:30.376Z,18.09
2022-11-29T06:25:32.802Z,18.09
2022-11-29T06:28:44.872Z,18.04
2022-11-29T06:31:50.492Z,18.08
2022-11-29T06:34:57.242Z,18.06
2022-11-29T06:38:04.507Z,18.09
2022-11-29T06:41:14.498Z,18.12
2022-11-29T06:44:17.115Z,18.10
2022-11-29T06:47:31.192Z,18.13
2022-11-29T06:50:39.357Z,18.19
2022-11-29T06:54:03.835Z,18.24
2022-11-29T06:57:09.045Z,18.24
2022-11-29T07:00:32.442Z,18.25
2022-11-29T07:04:05.698Z,18.28
2022-11-29T07:07:15.436Z,18.28
2022-11-29T07:10:19.673Z,18.24
2022-11-29T07:13:23.017Z,18.22
2022-11-29T07:16:40.907Z,18.25
2022-11-29T07:19:46.414Z,18.25
2022-11-29T07:22:58.535Z,18.26
2022-11-29T07:26:29.253Z,18.19
2022-11-29T07:29:41.339Z,18.21
2022-11-29T07:33:01.072Z,18.22
2022-11-29T07:36:12.673Z,18.22
2022-11-29T07:39:21.649Z,18.21
2022-11-29T07:43:09.777Z,18.24
2022-11-29T07:46:12.602Z,18.25
2022-11-29T07:49:15.478Z,18.24
2022-11-29T07:52:18.320Z,18.22
2022-11-29T07:55:23.076Z,18.25
2022-11-29T07:58:25.723Z,18.32
2022-11-29T08:01:28.113Z,18.36
2022-11-29T08:04:31.220Z,18.45
2022-11-29T08:07:38.408Z,18.50
2022-11-29T08:10:41.081Z,18.52
2022-11-29T08:13:43.199Z,18.53
2022-11-29T08:16:45.921Z,18.63
2022-11-29T08:19:47.977Z,18.66
2022-11-29T08:22:59.020Z,18.70
2022-11-29T08:26:02.858Z,18.74
2022-11-29T08:29:05.528Z,18.79
2022-11-29T08:32:09.260Z,18.84
2022-11-29T08:35:11.814Z,18.73
2022-11-29T08:38:14.217Z,18.77
2022-11-29T08:41:17.678Z,18.86
2022-11-29T08:44:20.961Z,18.83
2022-11-29T08:47:39.238Z,18.87
2022-11-29T08:50:41.400Z,18.99
2022-11-29T08:53:46.338Z,19.00
2022-11-29T09:00:12.130Z,19.20
2022-11-29T09:03:33.506Z,19.22
2022-11-29T09:06:41.967Z,19.22
2022-11-29T09:09:44.617Z,19.35
2022-11-29T09:12:47.150Z,19.36
2022-11-29T09:15:49.368Z,19.32
2022-11-29T09:18:54.844Z,19.35
2022-11-29T09:22:00.364Z,19.42
2022-11-29T09:25:03.090Z,19.47
2022-11-29T09:28:05.995Z,19.45
2022-11-29T09:31:11.702Z,19.41
2022-11-29T09:34:15.519Z,19.47
2022-11-29T09:38:08.624Z,19.52
2022-11-29T09:41:35.201Z,19.58
2022-11-29T09:44:50.720Z,19.61
2022-11-29T09:47:56.813Z,19.61
2022-11-29T09:51:18.579Z,19.61
2022-11-29T09:54:27.316Z,19.62
2022-11-29T09:57:31.766Z,19.65
2022-11-29T10:00:38.718Z,19.66
2022-11-29T10:03:44.774Z,19.69
2022-11-29T10:07:03.347Z,19.69
2022-11-29T10:10:29.898Z,19.71
2022-11-29T10:13:36.221Z,19.68
2022-11-29T10:16:52.936Z,19.68
2022-11-29T10:20:01.418Z,19.63
2022-11-29T10:23:21.654Z,19.52
2022-11-29T10:26:25.908Z,19.31
2022-11-29T10:29:32.154Z,19.28
2022-11-29T10:32:34.432Z,19.28
2022-11-29T10:35:37.488Z,19.28
2022-11-29T10:38:40.537Z,19.25
2022-11-29T10:41:43.273Z,19.25
2022-11-29T10:44:46.317Z,19.20
2022-11-29T10:47:51.262Z,19.12
2022-11-29T10:50:53.878Z,19.11
2022-11-29T10:54:03.143Z,19.11
2022-11-29T10:57:16.822Z,19.14
2022-11-29T11:00:19.601Z,19.14
2022-11-29T11:03:30.219Z,19.11
2022-11-29T11:06:56.520Z,19.08
2022-11-29T11:09:59.960Z,19.10
2022-11-29T11:13:20.441Z,19.04
2022-11-29T11:16:28.321Z,18.25
2022-11-29T11:19:35.816Z,18.15
2022-11-29T11:22:41.079Z,18.36
2022-11-29T11:25:43.588Z,18.59
2022-11-29T11:28:49.917Z,17.14
2022-11-29T11:31:58.174Z,16.08
2022-11-29T11:35:02.873Z,16.89
2022-11-29T11:38:05.515Z,16.25
2022-11-29T11:41:18.973Z,17.37
2022-11-29T11:44:46.442Z,17.30
2022-11-29T11:47:53.964Z,16.30
2022-11-29T11:50:59.658Z,13.97
2022-11-29T11:54:02.160Z,13.29
2022-11-29T11:57:04.996Z,12.92
2022-11-29T12:00:55.457Z,12.84
2022-11-29T12:04:06.592Z,13.81
2022-11-29T12:07:51.979Z,16.17
2022-11-29T12:10:54.213Z,17.06
2022-11-29T12:14:02.421Z,17.27
2022-11-29T12:17:24.721Z,16.93
2022-11-29T12:20:40.883Z,17.57
2022-11-29T12:24:34.544Z,17.88
2022-11-29T12:27:36.731Z,18.22
2022-11-29T12:30:48.077Z,18.37
2022-11-29T12:34:00.409Z,18.59
2022-11-29T12:37:21.586Z,18.04
2022-11-29T12:40:51.952Z,17.96
2022-11-29T12:44:13.610Z,16.53
2022-11-29T12:47:38.160Z,16.52
2022-11-29T12:50:49.929Z,15.22
2022-11-29T12:54:10.710Z,14.61
2022-11-29T12:57:24.114Z,13.63
2022-11-29T13:00:33.298Z,13.40
2022-11-29T13:03:48.551Z,13.52
2022-11-29T13:07:22.072Z,13.60
2022-11-29T13:10:24.564Z,13.55
2022-11-29T13:13:30.817Z,13.52
2022-11-29T13:16:39.540Z,13.39
2022-11-29T13:20:00.184Z,14.31
2022-11-29T13:23:45.677Z,14.65
2022-11-29T13:26:53.966Z,13.66
2022-11-29T13:29:59.769Z,12.65
2022-11-29T13:33:26.297Z,12.30
2022-11-29T13:36:34.673Z,12.14
2022-11-29T13:40:01.426Z,11.91
2022-11-29T13:43:31.359Z,11.87
2022-11-29T13:47:08.043Z,12.04
2022-11-29T13:50:37.523Z,12.31
2022-11-29T13:53:48.896Z,12.57
2022-11-29T13:57:06.854Z,12.92
2022-11-29T14:00:28.849Z,13.22
2022-11-29T14:03:34.031Z,12.75
2022-11-29T14:06:38.999Z,12.65
2022-11-29T14:09:50.215Z,12.60
2022-11-29T14:12:58.629Z,13.29
2022-11-29T14:16:07.011Z,12.45
2022-11-29T14:19:09.317Z,11.91
2022-11-29T14:22:21.186Z,11.56
2022-11-29T14:25:50.494Z,11.66
2022-11-29T14:43:28.188Z,12.13
2022-11-29T14:46:33.684Z,12.13
2022-11-29T14:49:42.623Z,12.01
2022-11-29T15:03:23.913Z,11.63
2022-11-29T15:06:31.892Z,11.59
2022-11-29T15:09:45.415Z,11.58
2022-11-29T15:13:55.582Z,11.72
2022-11-29T15:23:23.865Z,12.00
2022-11-29T15:26:45.514Z,11.36
2022-11-29T15:29:49.703Z,10.93
2022-11-29T15:33:04.165Z,10.95
2022-11-29T15:36:24.915Z,10.84
2022-11-29T15:39:37.140Z,11.03
2022-11-29T15:44:15.748Z,10.68
2022-11-29T15:47:38.725Z,10.61
2022-11-29T15:51:33.258Z,10.64
2022-11-29T15:58:39.751Z,10.73
2022-11-29T16:01:48.540Z,10.54
2022-11-29T16:05:08.775Z,10.57
2022-11-29T16:08:42.385Z,10.78
2022-11-29T16:11:54.425Z,11.15
2022-11-29T16:15:08.031Z,11.26
2022-11-29T16:18:38.454Z,11.36
2022-11-29T16:22:13.562Z,11.29
2022-11-29T16:26:27.510Z,11.39
2022-11-29T16:29:53.211Z,11.35
2022-11-29T16:33:14.709Z,11.66
2022-11-29T16:36:29.798Z,12.10
2022-11-29T16:39:41.241Z,12.57
2022-11-29T16:43:23.262Z,12.12
2022-11-29T16:46:40.230Z,12.13
2022-11-29T16:50:05.713Z,11.89
2022-11-29T16:53:42.190Z,12.45
2022-11-29T16:56:49.328Z,12.44
2022-11-29T16:59:52.600Z,12.42
2022-11-29T17:02:56.153Z,12.00
2022-11-29T17:05:58.675Z,11.94
2022-11-29T17:09:01.998Z,12.67
2022-11-29T17:12:05.017Z,13.18
2022-11-29T17:15:10.142Z,13.39
2022-11-29T17:18:12.149Z,13.60
2022-11-29T17:21:32.375Z,14.76
2022-11-29T17:24:34.550Z,15.30
2022-11-29T17:27:38.749Z,15.54
2022-11-29T17:30:41.366Z,16.04
2022-11-29T17:33:44.176Z,16.07
2022-11-29T17:36:47.172Z,15.40
2022-11-29T17:39:49.930Z,16.56
2022-11-29T17:42:52.243Z,16.87
2022-11-29T17:45:55.482Z,16.36
2022-11-29T17:49:11.401Z,16.75
2022-11-29T17:52:13.924Z,17.20
2022-11-29T17:55:20.378Z,17.13
2022-11-29T17:58:24.581Z,17.38
2022-11-29T18:01:30.998Z,16.80
2022-11-29T18:04:34.246Z,14.89
2022-11-29T18:07:58.225Z,13.53
2022-11-29T18:11:47.472Z,14.18
2022-11-29T18:14:54.350Z,14.37
2022-11-29T18:17:57.191Z,13.52
2022-11-29T18:21:00.990Z,12.68
2022-11-29T18:24:06.602Z,12.52
2022-11-29T18:38:16.785Z,11.58
2022-11-29T18:41:22.001Z,11.55
2022-11-29T18:44:29.856Z,11.46
2022-11-29T18:47:35.723Z,11.61
2022-11-29T18:50:38.398Z,11.69
2022-11-29T18:53:42.476Z,11.80
2022-11-29T18:56:47.536Z,11.91
2022-11-29T18:59:59.440Z,12.01
2022-11-29T19:03:04.799Z,12.21
2022-11-29T19:06:10.727Z,13.25
2022-11-29T19:09:16.359Z,14.75
2022-11-29T19:12:19.750Z,15.22
2022-11-29T19:15:22.184Z,15.51
2022-11-29T19:18:25.624Z,14.98
2022-11-29T19:21:30.501Z,15.32
2022-11-29T19:24:34.229Z,13.56
2022-11-29T19:27:40.421Z,13.08
2022-11-29T19:30:44.180Z,12.77
2022-11-29T19:33:47.628Z,12.38
2022-11-29T19:36:50.570Z,12.48
2022-11-29T19:39:52.962Z,14.59
2022-11-29T19:43:05.982Z,15.63
2022-11-29T19:46:17.073Z,16.07
2022-11-29T19:49:19.847Z,16.26
2022-11-29T19:52:22.394Z,16.45
2022-11-29T19:55:25.429Z,16.52
2022-11-29T19:58:27.949Z,16.80
2022-11-29T20:01:40.093Z,16.99
2022-11-29T20:04:43.815Z,17.17
2022-11-29T20:07:46.639Z,17.28
2022-11-29T20:10:49.552Z,17.47
2022-11-29T20:14:00.561Z,17.58
2022-11-29T20:17:04.154Z,16.77
2022-11-29T20:20:08.110Z,15.54
2022-11-29T20:23:13.243Z,14.45
2022-11-29T20:26:18.514Z,14.13
2022-11-29T20:29:21.913Z,15.53
2022-11-29T20:32:24.494Z,16.56
2022-11-29T20:35:27.378Z,17.11
2022-11-29T20:38:43.326Z,16.53
2022-11-29T20:42:17.242Z,17.21
2022-11-29T20:45:20.412Z,17.57
2022-11-29T20:48:24.299Z,17.45
2022-11-29T20:51:33.224Z,17.10
2022-11-29T20:54:36.189Z,15.97
2022-11-29T20:57:39.065Z,14.69
2022-11-29T21:00:41.297Z,14.28
2022-11-29T21:03:44.691Z,14.07
2022-11-29T21:06:46.907Z,13.98
2022-11-29T21:09:49.613Z,14.10
2022-11-29T21:12:52.150Z,14.20
2022-11-29T21:15:54.952Z,13.94
2022-11-29T21:19:02.584Z,14.22
2022-11-29T21:22:21.646Z,15.81
2022-11-29T21:25:52.163Z,16.38
2022-11-29T21:29:12.970Z,17.16
2022-11-29T21:32:22.335Z,17.53
2022-11-29T21:35:24.881Z,17.81
2022-11-29T21:38:27.453Z,18.01
2022-11-29T21:47:06.960Z,18.09
2022-11-29T21:50:54.374Z,18.10
2022-11-29T21:54:18.620Z,18.12
2022-11-29T21:57:39.252Z,18.10
2022-11-29T22:00:45.776Z,18.18
2022-11-29T22:03:49.236Z,18.30
2022-11-29T22:06:54.662Z,18.39
2022-11-29T22:09:56.976Z,18.49
2022-11-29T22:13:01.972Z,18.59
2022-11-29T22:16:09.124Z,18.66
2022-11-29T22:19:13.426Z,18.77
2022-11-29T22:22:15.755Z,18.83
2022-11-29T22:25:18.353Z,18.76
2022-11-29T22:28:26.977Z,18.76
2022-11-29T22:31:40.162Z,18.76
2022-11-29T22:34:42.577Z,18.74
2022-11-29T22:37:45.183Z,18.79
2022-11-29T22:40:47.386Z,18.90
2022-11-29T22:43:50.157Z,19.06
2022-11-29T22:46:52.701Z,19.18
2022-11-29T22:49:57.513Z,19.22
2022-11-29T22:52:59.885Z,19.32
2022-11-29T22:56:04.118Z,19.35
2022-11-29T22:59:06.426Z,19.45
2022-11-29T23:02:09.341Z,19.47
2022-11-29T23:05:11.567Z,19.54
2022-11-29T23:08:14.385Z,19.47
2022-11-29T23:11:19.897Z,19.42
2022-11-29T23:14:23.475Z,19.36
2022-11-29T23:17:25.850Z,19.41
2022-11-29T23:20:28.629Z,19.38
2022-11-29T23:23:31.581Z,19.38
2022-11-29T23:26:39.768Z,19.44
2022-11-29T23:29:42.095Z,19.51
2022-11-29T23:32:45.462Z,19.54
2022-11-29T23:35:48.176Z,19.55
2022-11-29T23:38:51.571Z,19.59
2022-11-29T23:41:53.543Z,19.58
2022-11-29T23:44:56.588Z,19.63
2022-11-29T23:47:58.555Z,19.58
2022-11-29T23:51:02.493Z,19.55
2022-11-29T23:54:04.730Z,19.55
2022-11-29T23:57:07.404Z,19.57
